Folsom, CA

11:58 PM PDT on August 30, 2014 (GMT -0700)
Sierra Woods | Change Station
CLOSE
Current Station
Personal Weather Station
Location: Folsom, CA
Elevation: 351 ft
Nearby Weather Stations

Elev 351 ft 38.68 °N, 121.15 °W | Updated 9 seconds ago

Clear
Clear
72.0 °F
Feels Like 77 °F
N
0.0
Wind Variable Wind from SE
Gusts 6.0 mph

Today
High -- | Low -- °F
--% Chance of Precip.
Yesterday
High -- | Low -- °F
Precip. -- in
6:32 AM 7:37 PM
Waxing Crescent, 28% visible
Pressure 29.79 in
Visibility 10.0 miles
Clouds Clear
Heat Index 77 °F
Dew Point 51 °F
Humidity 48%
Rainfall 0.00 in
Snow Depth Not available.
UV 0 out of 12
Pollen 9.20 out of 12
Ozone Good
PM2.5 Good
Flu Activity Not available.
METAR KLHM 310635Z AUTO 14009G14KT 10SM CLR 25/07 A2979 RMK AO1

More Conditions Fewer Conditions

Pressure 29.79 in
Visibility 10.0 miles
Clouds Clear
Heat Index 77 °F
Dew Point 51 °F
Humidity 48%
Rainfall 0.00 in
Snow Depth Not available.
UV 0 out of 12
Pollen 9.20 out of 12
Ozone Good
PM2.5 Good
Flu Activity Not available.
METAR KLHM 310635Z AUTO 14009G14KT 10SM CLR 25/07 A2979 RMK AO1

More Conditions Fewer Conditions

10-Day Weather Forecast

Almanac

Astronomy

Aug. 30, 2014 Rise Set
Actual Time 6:32 AM PDT 7:37 PM PDT
Civil Twilight 6:04 AM PDT 8:04 PM PDT
Nautical Twilight 5:32 AM PDT 8:37 PM PDT
Astronomical Twilight 4:58 AM PDT 9:11 PM PDT
Moon 11:21 AM PDT (8/30) 10:18 PM PDT (8/30)
Length of Visible Light 14h 00m
Length of Day
13h 05m
Tomorrow will be 2m 25s shorter.
Waxing Crescent, 28% of the Moon is Illuminated
Aug 31
Waxing Crescent
Sep 2
First Quarter
Sep 8
Full
Sep 15
Last Quarter
Sep 24
New

Community

WunderPhotos

Upload Photos

1,748,800 photos uploaded!

Nearby

Air Quality

  Air Quality AQ Index Pollutant
Yesterday Good
OZONE
Yesterday Good
PM10
Current Good
PM2.5
Current Good
OZONE
Saturday Moderate
OZONE
Sunday Moderate
OZONE
Monday Moderate
OZONE
Tuesday Moderate
OZONE
Wednesday Moderate
OZONE
Thursday Moderate
OZONE

Snow Depth

Station Depth Elevation
Rubicon #2 0 in 7500 ft
Squaw Valley 0 in 8200 ft
Echo Peak 1 in 7800 ft
CSS Lab 2 in 6900 ft
Tahoe City Cross 0 in 6750 ft

Earthquake Activity

City Distance Mag. Time & Date
Ridgemark, California 138 miles 3.4 4:32 PM PDT
2014-08-29
The Geysers, California 90 miles 2.7 2:53 PM PDT
2014-08-29
Ridgemark, California 138 miles 3.0 2:44 PM PDT
2014-08-29
Minimum magnitude displayed is 2.5.

Coastal Water Temperatures

Place Temperature
No Stations Reporting

Nearby Weather Stations